Bellingham International Airport

METAR KBLI TAF KBLI
7 °C
°C
-
°C
55m
Age
19:47:42
LT
18:47
UTC
0 ft

1,000

2,000

3,000

4,000

5,000

BKN 700
OVC 1,200
IFR
<?= Yii::t('app', 'Wind direction') ?> <?= Yii::t('app', 'of'); ?>
VAR
16:59
Sunset
100%
Humidity
Wind shear
Closed/Snow
RWY visual range
RWY condition
Vert. visibility
Min. visibility
CAVOK
Trend
Correction
Special report
30.24 inHg
QNH
METAR KBLI 271753Z 00000KT 4SM BR BKN007 OVC012 07/07 A3024 RMK AO2 SLP249 60000 T00670067 10067 20061 51014
Mist
0 kt
0 kt
10:00
IFR
3 kt
11:00
IFR
3 kt
12:00
IFR
3 kt
13:00
IFR
3 kt
14:00
MVFR
4 kt
15:00
MVFR
4 kt
16:00
MVFR
4 kt
4 mi
Visibility
700 ft
Ceiling
None
Wind
metar-taf.com/KBLI

Metar-Taf.com

Visual decoder

We and third parties follow your internet behavior on our website with cookies. If you continue, we assume you agree with our cookie policy.